sensor_id;sensor_type;location;lat;lon;timestamp;temperature;humidity
75164;HTU21D;63746;45.402;37.922;2024-02-14T00:01:11;11.00;71.37
75164;HTU21D;63746;45.402;37.922;2024-02-14T00:03:37;11.00;71.38
75164;HTU21D;63746;45.402;37.922;2024-02-14T00:06:04;11.01;71.46
75164;HTU21D;63746;45.402;37.922;2024-02-14T00:08:31;11.00;71.48
75164;HTU21D;63746;45.402;37.922;2024-02-14T00:10:58;10.99;71.44
75164;HTU21D;63746;45.402;37.922;2024-02-14T00:13:24;10.98;71.45
75164;HTU21D;63746;45.402;37.922;2024-02-14T00:15:50;10.98;71.39
75164;HTU21D;63746;45.402;37.922;2024-02-14T00:18:16;10.97;71.37
75164;HTU21D;63746;45.402;37.922;2024-02-14T00:20:42;10.94;71.35
75164;HTU21D;63746;45.402;37.922;2024-02-14T00:23:09;10.94;71.37
75164;HTU21D;63746;45.402;37.922;2024-02-14T00:25:37;10.93;71.41
75164;HTU21D;63746;45.402;37.922;2024-02-14T00:28:03;10.93;71.45
75164;HTU21D;63746;45.402;37.922;2024-02-14T00:30:31;10.93;71.47
75164;HTU21D;63746;45.402;37.922;2024-02-14T00:32:57;10.93;71.51
75164;HTU21D;63746;45.402;37.922;2024-02-14T00:35:24;10.92;71.43
75164;HTU21D;63746;45.402;37.922;2024-02-14T00:37:50;10.92;71.44
75164;HTU21D;63746;45.402;37.922;2024-02-14T00:40:16;10.90;71.41
75164;HTU21D;63746;45.402;37.922;2024-02-14T00:42:43;10.90;71.45
75164;HTU21D;63746;45.402;37.922;2024-02-14T00:45:09;10.89;71.51
75164;HTU21D;63746;45.402;37.922;2024-02-14T00:47:35;10.90;71.54
75164;HTU21D;63746;45.402;37.922;2024-02-14T00:50:02;10.90;71.51
75164;HTU21D;63746;45.402;37.922;2024-02-14T00:52:28;10.89;71.48
75164;HTU21D;63746;45.402;37.922;2024-02-14T00:54:54;10.89;71.43
75164;HTU21D;63746;45.402;37.922;2024-02-14T00:57:21;10.87;71.42
75164;HTU21D;63746;45.402;37.922;2024-02-14T00:59:52;10.87;71.45
75164;HTU21D;63746;45.402;37.922;2024-02-14T01:02:18;10.86;71.45
75164;HTU21D;63746;45.402;37.922;2024-02-14T01:04:44;10.86;71.45
75164;HTU21D;63746;45.402;37.922;2024-02-14T01:07:10;10.84;71.46
75164;HTU21D;63746;45.402;37.922;2024-02-14T01:09:36;10.84;71.44
75164;HTU21D;63746;45.402;37.922;2024-02-14T01:12:02;10.84;71.51
75164;HTU21D;63746;45.402;37.922;2024-02-14T01:14:28;10.85;71.48
75164;HTU21D;63746;45.402;37.922;2024-02-14T01:16:55;10.84;71.53
75164;HTU21D;63746;45.402;37.922;2024-02-14T01:19:22;10.85;71.52
75164;HTU21D;63746;45.402;37.922;2024-02-14T01:21:49;10.86;71.48
75164;HTU21D;63746;45.402;37.922;2024-02-14T01:24:16;10.85;71.51
75164;HTU21D;63746;45.402;37.922;2024-02-14T01:26:42;10.83;71.49
75164;HTU21D;63746;45.402;37.922;2024-02-14T01:29:08;10.84;71.46
75164;HTU21D;63746;45.402;37.922;2024-02-14T01:31:35;10.84;71.53
75164;HTU21D;63746;45.402;37.922;2024-02-14T01:34:01;10.85;71.51
75164;HTU21D;63746;45.402;37.922;2024-02-14T01:36:30;10.86;71.50
75164;HTU21D;63746;45.402;37.922;2024-02-14T01:38:56;10.85;71.48
75164;HTU21D;63746;45.402;37.922;2024-02-14T01:41:22;10.85;71.49
75164;HTU21D;63746;45.402;37.922;2024-02-14T01:43:49;10.85;71.50
75164;HTU21D;63746;45.402;37.922;2024-02-14T01:46:15;10.85;71.50
75164;HTU21D;63746;45.402;37.922;2024-02-14T01:48:42;10.85;71.53
75164;HTU21D;63746;45.402;37.922;2024-02-14T01:51:11;10.85;71.55
75164;HTU21D;63746;45.402;37.922;2024-02-14T01:53:38;10.86;71.54
75164;HTU21D;63746;45.402;37.922;2024-02-14T01:56:04;10.85;71.46
75164;HTU21D;63746;45.402;37.922;2024-02-14T01:58:33;10.83;71.36
75164;HTU21D;63746;45.402;37.922;2024-02-14T02:00:59;10.81;71.26
75164;HTU21D;63746;45.402;37.922;2024-02-14T02:03:26;10.77;71.23
75164;HTU21D;63746;45.402;37.922;2024-02-14T02:05:53;10.72;71.21
75164;HTU21D;63746;45.402;37.922;2024-02-14T02:08:20;10.70;71.24
75164;HTU21D;63746;45.402;37.922;2024-02-14T02:10:46;10.69;71.29
75164;HTU21D;63746;45.402;37.922;2024-02-14T02:13:12;10.68;71.33
75164;HTU21D;63746;45.402;37.922;2024-02-14T02:15:41;10.65;71.33
75164;HTU21D;63746;45.402;37.922;2024-02-14T02:18:10;10.63;71.39
75164;HTU21D;63746;45.402;37.922;2024-02-14T02:20:37;10.59;71.28
75164;HTU21D;63746;45.402;37.922;2024-02-14T02:23:03;10.58;71.27
75164;HTU21D;63746;45.402;37.922;2024-02-14T02:25:31;10.55;71.32
75164;HTU21D;63746;45.402;37.922;2024-02-14T02:27:56;10.52;71.25
75164;HTU21D;63746;45.402;37.922;2024-02-14T02:30:24;10.48;71.16
75164;HTU21D;63746;45.402;37.922;2024-02-14T02:32:51;10.39;71.01
75164;HTU21D;63746;45.402;37.922;2024-02-14T02:35:17;10.31;71.00
75164;HTU21D;63746;45.402;37.922;2024-02-14T02:37:47;10.23;71.12
75164;HTU21D;63746;45.402;37.922;2024-02-14T02:40:16;10.15;71.23
75164;HTU21D;63746;45.402;37.922;2024-02-14T02:42:42;10.10;71.41
75164;HTU21D;63746;45.402;37.922;2024-02-14T02:45:11;10.08;71.57
75164;HTU21D;63746;45.402;37.922;2024-02-14T02:47:37;10.08;71.76
75164;HTU21D;63746;45.402;37.922;2024-02-14T02:50:03;10.08;71.80
75164;HTU21D;63746;45.402;37.922;2024-02-14T02:52:30;10.07;71.84
75164;HTU21D;63746;45.402;37.922;2024-02-14T02:54:56;10.07;71.91
75164;HTU21D;63746;45.402;37.922;2024-02-14T02:57:22;10.08;71.97
75164;HTU21D;63746;45.402;37.922;2024-02-14T02:59:48;10.10;72.02
75164;HTU21D;63746;45.402;37.922;2024-02-14T03:02:15;10.09;71.92
75164;HTU21D;63746;45.402;37.922;2024-02-14T03:04:41;10.10;71.96
75164;HTU21D;63746;45.402;37.922;2024-02-14T03:07:08;10.09;71.90
75164;HTU21D;63746;45.402;37.922;2024-02-14T03:09:34;10.09;71.92
75164;HTU21D;63746;45.402;37.922;2024-02-14T03:12:02;10.08;71.92
75164;HTU21D;63746;45.402;37.922;2024-02-14T03:14:31;10.06;71.95
75164;HTU21D;63746;45.402;37.922;2024-02-14T03:17:02;10.08;71.96
75164;HTU21D;63746;45.402;37.922;2024-02-14T03:19:28;10.07;71.95
75164;HTU21D;63746;45.402;37.922;2024-02-14T03:21:56;10.09;72.02
75164;HTU21D;63746;45.402;37.922;2024-02-14T03:24:23;10.10;72.03
75164;HTU21D;63746;45.402;37.922;2024-02-14T03:26:51;10.11;72.01
75164;HTU21D;63746;45.402;37.922;2024-02-14T03:29:19;10.13;72.03
75164;HTU21D;63746;45.402;37.922;2024-02-14T03:31:46;10.14;72.03
75164;HTU21D;63746;45.402;37.922;2024-02-14T03:34:12;10.18;71.99
75164;HTU21D;63746;45.402;37.922;2024-02-14T03:36:38;10.19;71.96
75164;HTU21D;63746;45.402;37.922;2024-02-14T03:39:05;10.19;71.90
75164;HTU21D;63746;45.402;37.922;2024-02-14T03:41:32;10.19;71.88
75164;HTU21D;63746;45.402;37.922;2024-02-14T03:43:58;10.21;71.88
75164;HTU21D;63746;45.402;37.922;2024-02-14T03:46:29;10.21;71.87
75164;HTU21D;63746;45.402;37.922;2024-02-14T03:48:55;10.22;71.89
75164;HTU21D;63746;45.402;37.922;2024-02-14T03:51:23;10.23;71.86
75164;HTU21D;63746;45.402;37.922;2024-02-14T03:53:49;10.25;71.74
75164;HTU21D;63746;45.402;37.922;2024-02-14T03:56:15;10.24;71.79
75164;HTU21D;63746;45.402;37.922;2024-02-14T03:58:42;10.24;71.77
75164;HTU21D;63746;45.402;37.922;2024-02-14T04:01:08;10.26;71.80
75164;HTU21D;63746;45.402;37.922;2024-02-14T04:03:34;10.26;71.81
75164;HTU21D;63746;45.402;37.922;2024-02-14T04:06:00;10.28;71.77
75164;HTU21D;63746;45.402;37.922;2024-02-14T04:08:26;10.27;71.69
75164;HTU21D;63746;45.402;37.922;2024-02-14T04:10:52;10.27;71.68
75164;HTU21D;63746;45.402;37.922;2024-02-14T04:13:22;10.27;71.65
75164;HTU21D;63746;45.402;37.922;2024-02-14T04:15:48;10.26;71.63
75164;HTU21D;63746;45.402;37.922;2024-02-14T04:18:14;10.25;71.62
75164;HTU21D;63746;45.402;37.922;2024-02-14T04:20:44;10.26;71.61
75164;HTU21D;63746;45.402;37.922;2024-02-14T04:23:10;10.25;71.67
75164;HTU21D;63746;45.402;37.922;2024-02-14T04:25:36;10.26;71.67
75164;HTU21D;63746;45.402;37.922;2024-02-14T04:28:03;10.25;71.66
75164;HTU21D;63746;45.402;37.922;2024-02-14T04:30:29;10.24;71.64
75164;HTU21D;63746;45.402;37.922;2024-02-14T04:32:55;10.25;71.59
75164;HTU21D;63746;45.402;37.922;2024-02-14T04:35:22;10.24;71.64
75164;HTU21D;63746;45.402;37.922;2024-02-14T04:37:48;10.24;71.69
75164;HTU21D;63746;45.402;37.922;2024-02-14T04:40:15;10.23;71.64
75164;HTU21D;63746;45.402;37.922;2024-02-14T04:42:41;10.21;71.65
75164;HTU21D;63746;45.402;37.922;2024-02-14T04:45:07;10.22;71.61
75164;HTU21D;63746;45.402;37.922;2024-02-14T04:47:34;10.19;71.51
75164;HTU21D;63746;45.402;37.922;2024-02-14T04:50:00;10.14;71.55
75164;HTU21D;63746;45.402;37.922;2024-02-14T04:52:30;10.10;71.59
75164;HTU21D;63746;45.402;37.922;2024-02-14T04:54:56;10.09;71.61
75164;HTU21D;63746;45.402;37.922;2024-02-14T04:57:22;10.05;71.71
75164;HTU21D;63746;45.402;37.922;2024-02-14T04:59:48;10.06;71.78
75164;HTU21D;63746;45.402;37.922;2024-02-14T05:02:15;10.06;71.87
75164;HTU21D;63746;45.402;37.922;2024-02-14T05:04:41;10.07;71.90
75164;HTU21D;63746;45.402;37.922;2024-02-14T05:07:07;10.07;71.92
75164;HTU21D;63746;45.402;37.922;2024-02-14T05:09:33;10.06;71.93
75164;HTU21D;63746;45.402;37.922;2024-02-14T05:11:59;10.08;71.93
75164;HTU21D;63746;45.402;37.922;2024-02-14T05:14:26;10.08;71.96
75164;HTU21D;63746;45.402;37.922;2024-02-14T05:16:55;10.09;71.96
75164;HTU21D;63746;45.402;37.922;2024-02-14T05:19:21;10.09;71.96
75164;HTU21D;63746;45.402;37.922;2024-02-14T05:21:48;10.10;71.93
75164;HTU21D;63746;45.402;37.922;2024-02-14T05:24:15;10.10;71.87
75164;HTU21D;63746;45.402;37.922;2024-02-14T05:26:41;10.09;71.81
75164;HTU21D;63746;45.402;37.922;2024-02-14T05:29:07;10.06;71.77
75164;HTU21D;63746;45.402;37.922;2024-02-14T05:31:44;10.07;71.91
75164;HTU21D;63746;45.402;37.922;2024-02-14T05:34:11;10.08;72.02
75164;HTU21D;63746;45.402;37.922;2024-02-14T05:36:37;10.09;72.08
75164;HTU21D;63746;45.402;37.922;2024-02-14T05:39:04;10.11;72.16
75164;HTU21D;63746;45.402;37.922;2024-02-14T05:41:34;10.15;72.20
75164;HTU21D;63746;45.402;37.922;2024-02-14T05:44:00;10.19;72.27
75164;HTU21D;63746;45.402;37.922;2024-02-14T05:46:26;10.23;72.27
75164;HTU21D;63746;45.402;37.922;2024-02-14T05:48:53;10.26;72.22
75164;HTU21D;63746;45.402;37.922;2024-02-14T05:51:20;10.29;72.27
75164;HTU21D;63746;45.402;37.922;2024-02-14T05:53:46;10.33;72.26
75164;HTU21D;63746;45.402;37.922;2024-02-14T05:56:12;10.36;72.29
75164;HTU21D;63746;45.402;37.922;2024-02-14T05:58:38;10.40;72.19
75164;HTU21D;63746;45.402;37.922;2024-02-14T06:01:04;10.41;72.16
75164;HTU21D;63746;45.402;37.922;2024-02-14T06:03:32;10.43;72.19
75164;HTU21D;63746;45.402;37.922;2024-02-14T06:05:58;10.44;72.16
75164;HTU21D;63746;45.402;37.922;2024-02-14T06:08:24;10.46;72.19
75164;HTU21D;63746;45.402;37.922;2024-02-14T06:10:50;10.49;72.21
75164;HTU21D;63746;45.402;37.922;2024-02-14T06:13:16;10.52;72.21
75164;HTU21D;63746;45.402;37.922;2024-02-14T06:15:42;10.56;72.25
75164;HTU21D;63746;45.402;37.922;2024-02-14T06:18:08;10.59;72.29
75164;HTU21D;63746;45.402;37.922;2024-02-14T06:20:35;10.63;72.33
75164;HTU21D;63746;45.402;37.922;2024-02-14T06:23:01;10.66;72.31
75164;HTU21D;63746;45.402;37.922;2024-02-14T06:25:27;10.69;72.32
75164;HTU21D;63746;45.402;37.922;2024-02-14T06:27:53;10.73;72.36
75164;HTU21D;63746;45.402;37.922;2024-02-14T06:30:22;10.77;72.34
75164;HTU21D;63746;45.402;37.922;2024-02-14T06:32:48;10.80;72.38
75164;HTU21D;63746;45.402;37.922;2024-02-14T06:35:15;10.86;72.45
75164;HTU21D;63746;45.402;37.922;2024-02-14T06:37:45;10.92;72.50
75164;HTU21D;63746;45.402;37.922;2024-02-14T06:40:11;10.97;72.47
75164;HTU21D;63746;45.402;37.922;2024-02-14T06:42:37;11.02;72.51
75164;HTU21D;63746;45.402;37.922;2024-02-14T06:45:06;11.09;72.59
75164;HTU21D;63746;45.402;37.922;2024-02-14T06:47:32;11.17;72.65
75164;HTU21D;63746;45.402;37.922;2024-02-14T06:49:58;11.26;72.68
75164;HTU21D;63746;45.402;37.922;2024-02-14T06:52:24;11.37;72.77
75164;HTU21D;63746;45.402;37.922;2024-02-14T06:54:50;11.51;72.88
75164;HTU21D;63746;45.402;37.922;2024-02-14T06:57:16;11.64;72.96
75164;HTU21D;63746;45.402;37.922;2024-02-14T06:59:43;11.84;73.03
75164;HTU21D;63746;45.402;37.922;2024-02-14T07:02:10;11.99;73.11
75164;HTU21D;63746;45.402;37.922;2024-02-14T07:04:36;12.18;73.09
75164;HTU21D;63746;45.402;37.922;2024-02-14T07:07:03;12.34;73.01
75164;HTU21D;63746;45.402;37.922;2024-02-14T07:09:29;12.52;72.96
75164;HTU21D;63746;45.402;37.922;2024-02-14T07:11:55;12.65;72.71
75164;HTU21D;63746;45.402;37.922;2024-02-14T07:14:23;12.77;72.45
75164;HTU21D;63746;45.402;37.922;2024-02-14T07:16:50;12.85;72.27
75164;HTU21D;63746;45.402;37.922;2024-02-14T07:19:16;12.92;72.17
75164;HTU21D;63746;45.402;37.922;2024-02-14T07:21:42;13.00;72.09
75164;HTU21D;63746;45.402;37.922;2024-02-14T07:24:09;13.06;72.02
75164;HTU21D;63746;45.402;37.922;2024-02-14T07:26:35;13.15;71.93
75164;HTU21D;63746;45.402;37.922;2024-02-14T07:29:01;13.21;71.89
75164;HTU21D;63746;45.402;37.922;2024-02-14T07:31:29;13.27;71.80
75164;HTU21D;63746;45.402;37.922;2024-02-14T07:34:00;13.32;71.67
75164;HTU21D;63746;45.402;37.922;2024-02-14T07:36:29;13.39;71.63
75164;HTU21D;63746;45.402;37.922;2024-02-14T07:38:55;13.46;71.61
75164;HTU21D;63746;45.402;37.922;2024-02-14T07:41:21;13.52;71.58
75164;HTU21D;63746;45.402;37.922;2024-02-14T07:43:47;13.58;71.57
75164;HTU21D;63746;45.402;37.922;2024-02-14T07:46:18;13.67;71.58
75164;HTU21D;63746;45.402;37.922;2024-02-14T07:48:45;13.76;71.54
75164;HTU21D;63746;45.402;37.922;2024-02-14T07:51:12;13.84;71.40
75164;HTU21D;63746;45.402;37.922;2024-02-14T07:53:38;13.91;71.32
75164;HTU21D;63746;45.402;37.922;2024-02-14T07:56:04;13.97;71.32
75164;HTU21D;63746;45.402;37.922;2024-02-14T07:58:30;14.06;71.31
75164;HTU21D;63746;45.402;37.922;2024-02-14T08:00:56;14.14;71.29
75164;HTU21D;63746;45.402;37.922;2024-02-14T08:03:22;14.23;71.22
75164;HTU21D;63746;45.402;37.922;2024-02-14T08:05:50;14.30;71.17
75164;HTU21D;63746;45.402;37.922;2024-02-14T08:08:17;14.37;71.10
75164;HTU21D;63746;45.402;37.922;2024-02-14T08:10:43;14.42;71.01
75164;HTU21D;63746;45.402;37.922;2024-02-14T08:13:09;14.48;70.93
75164;HTU21D;63746;45.402;37.922;2024-02-14T08:15:36;14.53;70.87
75164;HTU21D;63746;45.402;37.922;2024-02-14T08:18:02;14.57;70.86
75164;HTU21D;63746;45.402;37.922;2024-02-14T08:20:28;14.62;70.83
75164;HTU21D;63746;45.402;37.922;2024-02-14T08:22:55;14.67;70.85
75164;HTU21D;63746;45.402;37.922;2024-02-14T08:25:22;14.70;70.81
75164;HTU21D;63746;45.402;37.922;2024-02-14T08:27:48;14.73;70.75
75164;HTU21D;63746;45.402;37.922;2024-02-14T08:30:14;14.75;70.74
75164;HTU21D;63746;45.402;37.922;2024-02-14T08:32:40;14.80;70.68
75164;HTU21D;63746;45.402;37.922;2024-02-14T08:35:07;14.81;70.66
75164;HTU21D;63746;45.402;37.922;2024-02-14T08:37:33;14.85;70.61
75164;HTU21D;63746;45.402;37.922;2024-02-14T08:40:02;14.87;70.58
75164;HTU21D;63746;45.402;37.922;2024-02-14T08:42:32;14.89;70.62
75164;HTU21D;63746;45.402;37.922;2024-02-14T08:44:59;14.92;70.53
75164;HTU21D;63746;45.402;37.922;2024-02-14T08:47:25;14.93;70.54
75164;HTU21D;63746;45.402;37.922;2024-02-14T08:49:51;14.96;70.57
75164;HTU21D;63746;45.402;37.922;2024-02-14T08:52:17;14.97;70.57
75164;HTU21D;63746;45.402;37.922;2024-02-14T08:54:44;14.98;70.57
75164;HTU21D;63746;45.402;37.922;2024-02-14T08:57:10;15.01;70.58
75164;HTU21D;63746;45.402;37.922;2024-02-14T08:59:36;15.04;70.58
75164;HTU21D;63746;45.402;37.922;2024-02-14T09:02:02;15.07;70.61
75164;HTU21D;63746;45.402;37.922;2024-02-14T09:04:28;15.11;70.61
75164;HTU21D;63746;45.402;37.922;2024-02-14T09:06:54;15.14;70.58
75164;HTU21D;63746;45.402;37.922;2024-02-14T09:09:20;15.15;70.53
75164;HTU21D;63746;45.402;37.922;2024-02-14T09:11:46;15.17;70.54
75164;HTU21D;63746;45.402;37.922;2024-02-14T09:14:13;15.18;70.52
75164;HTU21D;63746;45.402;37.922;2024-02-14T09:16:39;15.19;70.52
75164;HTU21D;63746;45.402;37.922;2024-02-14T09:19:05;15.22;70.55
75164;HTU21D;63746;45.402;37.922;2024-02-14T09:21:33;15.23;70.58
75164;HTU21D;63746;45.402;37.922;2024-02-14T09:24:04;15.24;70.55
75164;HTU21D;63746;45.402;37.922;2024-02-14T09:26:30;15.26;70.55
75164;HTU21D;63746;45.402;37.922;2024-02-14T09:28:57;15.27;70.59
75164;HTU21D;63746;45.402;37.922;2024-02-14T09:31:23;15.30;70.64
75164;HTU21D;63746;45.402;37.922;2024-02-14T09:33:49;15.33;70.63
75164;HTU21D;63746;45.402;37.922;2024-02-14T09:36:15;15.36;70.65
75164;HTU21D;63746;45.402;37.922;2024-02-14T09:38:42;15.37;70.59
75164;HTU21D;63746;45.402;37.922;2024-02-14T09:43:56;15.41;70.61
75164;HTU21D;63746;45.402;37.922;2024-02-14T09:46:24;15.42;70.61
75164;HTU21D;63746;45.402;37.922;2024-02-14T09:48:52;15.45;70.62
75164;HTU21D;63746;45.402;37.922;2024-02-14T09:51:18;15.47;70.61
75164;HTU21D;63746;45.402;37.922;2024-02-14T09:53:44;15.51;70.61
75164;HTU21D;63746;45.402;37.922;2024-02-14T09:56:11;15.56;70.79
75164;HTU21D;63746;45.402;37.922;2024-02-14T09:58:40;15.66;71.03
75164;HTU21D;63746;45.402;37.922;2024-02-14T10:01:06;15.82;71.15
75164;HTU21D;63746;45.402;37.922;2024-02-14T10:03:33;15.93;70.98
75164;HTU21D;63746;45.402;37.922;2024-02-14T10:06:01;16.04;70.79
75164;HTU21D;63746;45.402;37.922;2024-02-14T10:08:27;16.13;70.61
75164;HTU21D;63746;45.402;37.922;2024-02-14T10:10:56;16.21;70.55
75164;HTU21D;63746;45.402;37.922;2024-02-14T10:13:26;16.28;70.49
75164;HTU21D;63746;45.402;37.922;2024-02-14T10:15:52;16.33;70.36
75164;HTU21D;63746;45.402;37.922;2024-02-14T10:18:20;16.37;70.32
75164;HTU21D;63746;45.402;37.922;2024-02-14T10:20:55;16.41;70.23
75164;HTU21D;63746;45.402;37.922;2024-02-14T10:23:21;16.41;70.16
75164;HTU21D;63746;45.402;37.922;2024-02-14T10:25:56;16.43;70.14
75164;HTU21D;63746;45.402;37.922;2024-02-14T10:28:23;16.42;70.10
75164;HTU21D;63746;45.402;37.922;2024-02-14T10:30:49;16.42;70.07
75164;HTU21D;63746;45.402;37.922;2024-02-14T10:33:16;16.43;70.05
75164;HTU21D;63746;45.402;37.922;2024-02-14T10:35:42;16.41;70.10
75164;HTU21D;63746;45.402;37.922;2024-02-14T10:38:09;16.40;70.05
75164;HTU21D;63746;45.402;37.922;2024-02-14T10:40:36;16.39;70.09
75164;HTU21D;63746;45.402;37.922;2024-02-14T10:43:06;16.39;70.13
75164;HTU21D;63746;45.402;37.922;2024-02-14T10:45:32;16.40;70.14
75164;HTU21D;63746;45.402;37.922;2024-02-14T10:48:00;16.41;70.15
75164;HTU21D;63746;45.402;37.922;2024-02-14T10:50:28;16.42;70.16
75164;HTU21D;63746;45.402;37.922;2024-02-14T10:52:57;16.42;70.06
75164;HTU21D;63746;45.402;37.922;2024-02-14T10:55:29;16.41;70.08
75164;HTU21D;63746;45.402;37.922;2024-02-14T10:57:57;16.40;70.14
75164;HTU21D;63746;45.402;37.922;2024-02-14T11:00:23;16.42;70.21
75164;HTU21D;63746;45.402;37.922;2024-02-14T11:02:50;16.46;70.19
75164;HTU21D;63746;45.402;37.922;2024-02-14T11:05:19;16.47;70.25
75164;HTU21D;63746;45.402;37.922;2024-02-14T11:07:49;16.51;70.27
75164;HTU21D;63746;45.402;37.922;2024-02-14T11:10:20;16.56;70.25
75164;HTU21D;63746;45.402;37.922;2024-02-14T11:12:47;16.60;70.29
75164;HTU21D;63746;45.402;37.922;2024-02-14T11:17:47;16.71;70.29
75164;HTU21D;63746;45.402;37.922;2024-02-14T11:20:19;16.74;70.22
75164;HTU21D;63746;45.402;37.922;2024-02-14T11:23:03;16.77;69.91
75164;HTU21D;63746;45.402;37.922;2024-02-14T11:25:34;16.77;70.08
75164;HTU21D;63746;45.402;37.922;2024-02-14T11:28:23;16.77;69.95
75164;HTU21D;63746;45.402;37.922;2024-02-14T11:30:51;16.79;70.12
75164;HTU21D;63746;45.402;37.922;2024-02-14T11:33:22;16.80;70.03
75164;HTU21D;63746;45.402;37.922;2024-02-14T11:35:53;16.84;70.14
75164;HTU21D;63746;45.402;37.922;2024-02-14T11:38:44;16.90;70.23
75164;HTU21D;63746;45.402;37.922;2024-02-14T11:41:35;16.98;70.27
75164;HTU21D;63746;45.402;37.922;2024-02-14T11:44:27;17.06;70.33
75164;HTU21D;63746;45.402;37.922;2024-02-14T11:47:19;17.17;70.26
75164;HTU21D;63746;45.402;37.922;2024-02-14T11:50:11;17.26;70.10
75164;HTU21D;63746;45.402;37.922;2024-02-14T11:53:02;17.34;70.12
75164;HTU21D;63746;45.402;37.922;2024-02-14T12:19:18;18.69;68.13
75164;HTU21D;63746;45.402;37.922;2024-02-14T12:21:45;18.68;68.21
75164;HTU21D;63746;45.402;37.922;2024-02-14T12:24:12;18.63;68.36
75164;HTU21D;63746;45.402;37.922;2024-02-14T12:26:42;18.59;68.49
75164;HTU21D;63746;45.402;37.922;2024-02-14T12:29:11;18.56;68.44
75164;HTU21D;63746;45.402;37.922;2024-02-14T12:31:38;18.52;68.62
75164;HTU21D;63746;45.402;37.922;2024-02-14T12:34:04;18.49;68.81
75164;HTU21D;63746;45.402;37.922;2024-02-14T12:36:31;18.50;68.96
75164;HTU21D;63746;45.402;37.922;2024-02-14T12:39:04;18.54;69.07
75164;HTU21D;63746;45.402;37.922;2024-02-14T12:41:30;18.50;68.70
75164;HTU21D;63746;45.402;37.922;2024-02-14T12:43:58;18.42;68.58
75164;HTU21D;63746;45.402;37.922;2024-02-14T12:46:25;18.37;68.78
75164;HTU21D;63746;45.402;37.922;2024-02-14T12:48:51;18.34;68.85
75164;HTU21D;63746;45.402;37.922;2024-02-14T12:51:17;18.32;68.92
75164;HTU21D;63746;45.402;37.922;2024-02-14T12:53:43;18.26;68.81
75164;HTU21D;63746;45.402;37.922;2024-02-14T12:56:09;18.20;68.81
75164;HTU21D;63746;45.402;37.922;2024-02-14T12:58:36;18.11;68.84
75164;HTU21D;63746;45.402;37.922;2024-02-14T13:01:02;18.02;68.83
75164;HTU21D;63746;45.402;37.922;2024-02-14T13:03:32;17.91;68.86
75164;HTU21D;63746;45.402;37.922;2024-02-14T13:05:59;17.83;69.13
75164;HTU21D;63746;45.402;37.922;2024-02-14T13:08:26;17.80;69.11
75164;HTU21D;63746;45.402;37.922;2024-02-14T13:10:52;17.73;68.95
75164;HTU21D;63746;45.402;37.922;2024-02-14T13:13:18;17.64;69.02
75164;HTU21D;63746;45.402;37.922;2024-02-14T13:15:44;17.56;68.96
75164;HTU21D;63746;45.402;37.922;2024-02-14T13:18:11;17.48;69.00
75164;HTU21D;63746;45.402;37.922;2024-02-14T13:20:37;17.39;69.01
75164;HTU21D;63746;45.402;37.922;2024-02-14T13:23:04;17.31;69.22
75164;HTU21D;63746;45.402;37.922;2024-02-14T13:25:35;17.23;69.22
75164;HTU21D;63746;45.402;37.922;2024-02-14T13:28:03;17.16;69.28
75164;HTU21D;63746;45.402;37.922;2024-02-14T13:30:29;17.09;69.39
75164;HTU21D;63746;45.402;37.922;2024-02-14T13:32:55;17.04;69.42
75164;HTU21D;63746;45.402;37.922;2024-02-14T13:35:22;16.99;69.58
75164;HTU21D;63746;45.402;37.922;2024-02-14T13:37:48;16.94;69.63
75164;HTU21D;63746;45.402;37.922;2024-02-14T13:40:15;16.91;69.65
75164;HTU21D;63746;45.402;37.922;2024-02-14T13:42:41;16.87;69.65
75164;HTU21D;63746;45.402;37.922;2024-02-14T13:45:07;16.82;69.72
75164;HTU21D;63746;45.402;37.922;2024-02-14T13:47:38;16.77;68.68
75164;HTU21D;63746;45.402;37.922;2024-02-14T13:50:09;16.69;69.61
75164;HTU21D;63746;45.402;37.922;2024-02-14T13:52:36;16.62;69.63
75164;HTU21D;63746;45.402;37.922;2024-02-14T13:55:03;16.59;69.80
75164;HTU21D;63746;45.402;37.922;2024-02-14T13:57:39;16.55;69.71
75164;HTU21D;63746;45.402;37.922;2024-02-14T14:00:07;16.49;69.89
75164;HTU21D;63746;45.402;37.922;2024-02-14T14:02:40;16.48;69.87
75164;HTU21D;63746;45.402;37.922;2024-02-14T14:05:10;16.44;69.91
75164;HTU21D;63746;45.402;37.922;2024-02-14T14:07:36;16.41;69.82
75164;HTU21D;63746;45.402;37.922;2024-02-14T14:10:05;16.42;70.19
75164;HTU21D;63746;45.402;37.922;2024-02-14T14:12:31;16.42;70.11
75164;HTU21D;63746;45.402;37.922;2024-02-14T14:14:58;16.41;70.01
75164;HTU21D;63746;45.402;37.922;2024-02-14T14:17:24;16.35;69.98
75164;HTU21D;63746;45.402;37.922;2024-02-14T14:19:52;16.31;69.94
75164;HTU21D;63746;45.402;37.922;2024-02-14T14:22:18;16.28;69.94
75164;HTU21D;63746;45.402;37.922;2024-02-14T14:24:45;16.21;69.94
75164;HTU21D;63746;45.402;37.922;2024-02-14T14:27:11;16.18;69.94
75164;HTU21D;63746;45.402;37.922;2024-02-14T14:29:41;16.12;70.06
75164;HTU21D;63746;45.402;37.922;2024-02-14T14:32:08;16.08;70.13
75164;HTU21D;63746;45.402;37.922;2024-02-14T14:34:34;16.05;70.08
75164;HTU21D;63746;45.402;37.922;2024-02-14T14:37:00;16.03;70.09
75164;HTU21D;63746;45.402;37.922;2024-02-14T14:39:26;15.98;70.10
75164;HTU21D;63746;45.402;37.922;2024-02-14T14:41:53;15.95;70.12
75164;HTU21D;63746;45.402;37.922;2024-02-14T14:44:26;15.89;70.10
75164;HTU21D;63746;45.402;37.922;2024-02-14T14:46:53;15.85;69.52
75164;HTU21D;63746;45.402;37.922;2024-02-14T14:49:19;15.80;70.11
75164;HTU21D;63746;45.402;37.922;2024-02-14T14:51:45;15.74;70.17
75164;HTU21D;63746;45.402;37.922;2024-02-14T14:54:11;15.71;70.23
75164;HTU21D;63746;45.402;37.922;2024-02-14T14:56:37;15.69;70.25
75164;HTU21D;63746;45.402;37.922;2024-02-14T14:59:03;15.65;70.31
75164;HTU21D;63746;45.402;37.922;2024-02-14T15:01:30;15.61;70.31
75164;HTU21D;63746;45.402;37.922;2024-02-14T15:03:56;15.67;70.77
75164;HTU21D;63746;45.402;37.922;2024-02-14T15:06:22;15.75;70.76
75164;HTU21D;63746;45.402;37.922;2024-02-14T15:08:48;15.81;70.70
75164;HTU21D;63746;45.402;37.922;2024-02-14T15:11:14;15.85;70.61
75164;HTU21D;63746;45.402;37.922;2024-02-14T15:13:42;15.84;70.41
75164;HTU21D;63746;45.402;37.922;2024-02-14T15:16:10;15.81;70.25
75164;HTU21D;63746;45.402;37.922;2024-02-14T15:18:36;15.78;70.20
75164;HTU21D;63746;45.402;37.922;2024-02-14T15:21:03;15.73;70.16
75164;HTU21D;63746;45.402;37.922;2024-02-14T15:23:29;15.69;70.17
75164;HTU21D;63746;45.402;37.922;2024-02-14T15:25:55;15.67;70.16
75164;HTU21D;63746;45.402;37.922;2024-02-14T15:28:32;15.62;70.23
75164;HTU21D;63746;45.402;37.922;2024-02-14T15:31:07;15.59;70.27
75164;HTU21D;63746;45.402;37.922;2024-02-14T15:33:52;15.55;70.29